createdAt,value
2018-05-09T00:01:47.763Z,11.80
2018-05-09T00:04:16.993Z,11.60
2018-05-09T00:06:45.507Z,11.60
2018-05-09T00:09:13.968Z,11.70
2018-05-09T00:11:42.501Z,11.70
2018-05-09T00:14:10.956Z,11.70
2018-05-09T00:16:39.467Z,11.60
2018-05-09T00:19:07.981Z,11.50
2018-05-09T00:21:37.289Z,11.90
2018-05-09T00:24:06.514Z,12.10
2018-05-09T00:26:35.014Z,12.10
2018-05-09T00:29:04.256Z,12.30
2018-05-09T00:31:32.756Z,12.30
2018-05-09T00:34:01.221Z,12.50
2018-05-09T00:36:29.863Z,12.50
2018-05-09T00:38:58.335Z,12.60
2018-05-09T00:41:26.863Z,12.70
2018-05-09T00:43:55.343Z,12.70
2018-05-09T00:46:23.837Z,12.50
2018-05-09T00:48:52.290Z,12.40
2018-05-09T00:51:20.805Z,12.30
2018-05-09T00:53:49.269Z,12.10
2018-05-09T00:56:17.748Z,12.00
2018-05-09T00:58:46.188Z,11.90
2018-05-09T01:01:15.461Z,11.80
2018-05-09T01:03:43.983Z,11.80
2018-05-09T01:06:13.261Z,11.70
2018-05-09T01:08:41.743Z,11.70
2018-05-09T01:11:10.269Z,11.70
2018-05-09T01:13:39.543Z,11.60
2018-05-09T01:16:08.042Z,11.60
2018-05-09T01:18:36.506Z,11.70
2018-05-09T01:21:05.018Z,11.80
2018-05-09T01:23:33.477Z,11.80
2018-05-09T01:26:01.989Z,11.80
2018-05-09T01:28:31.225Z,11.90
2018-05-09T01:30:59.718Z,11.90
2018-05-09T01:33:28.193Z,11.80
2018-05-09T01:35:57.477Z,11.60
2018-05-09T01:38:26.702Z,11.50
2018-05-09T01:40:55.188Z,11.50
2018-05-09T01:43:23.651Z,11.60
2018-05-09T01:45:52.949Z,11.70
2018-05-09T01:48:21.414Z,11.60
2018-05-09T01:50:49.897Z,11.70
2018-05-09T01:53:18.360Z,11.90
2018-05-09T01:55:47.670Z,12.00
2018-05-09T01:58:16.133Z,12.00
2018-05-09T02:00:44.584Z,12.20
2018-05-09T02:03:13.840Z,12.30
2018-05-09T02:05:42.335Z,12.30
2018-05-09T02:08:10.888Z,12.30
2018-05-09T02:10:39.334Z,12.40
2018-05-09T02:13:07.813Z,12.50
2018-05-09T02:15:36.309Z,12.60
2018-05-09T02:18:04.797Z,12.70
2018-05-09T02:20:34.284Z,12.90
2018-05-09T02:23:02.842Z,12.90
2018-05-09T02:25:31.298Z,12.90
2018-05-09T02:28:00.532Z,12.90
2018-05-09T02:30:29.029Z,12.90
2018-05-09T02:32:57.519Z,12.90
2018-05-09T02:35:25.978Z,13.00
2018-05-09T02:37:54.508Z,13.10
2018-05-09T02:40:22.985Z,13.10
2018-05-09T02:42:51.487Z,13.10
2018-05-09T02:45:20.705Z,12.90
2018-05-09T02:47:49.942Z,12.90
2018-05-09T02:50:18.395Z,12.80
2018-05-09T02:52:47.453Z,12.90
2018-05-09T02:55:15.978Z,12.80
2018-05-09T02:57:45.268Z,12.90
2018-05-09T03:00:13.864Z,12.80
2018-05-09T03:05:17.807Z,12.80
2018-05-09T03:07:47.096Z,12.90
2018-05-09T03:10:16.038Z,12.80
2018-05-09T03:12:44.589Z,12.80
2018-05-09T03:15:13.798Z,12.90
2018-05-09T03:17:43.357Z,13.10
2018-05-09T03:20:11.902Z,13.00
2018-05-09T03:22:40.486Z,13.10
2018-05-09T03:25:08.940Z,13.00
2018-05-09T03:27:37.475Z,12.80
2018-05-09T03:30:05.946Z,12.60
2018-05-09T03:32:34.499Z,12.70
2018-05-09T03:35:03.910Z,12.60
2018-05-09T03:37:33.244Z,12.50
2018-05-09T03:40:01.721Z,12.50
2018-05-09T03:42:30.987Z,12.40
2018-05-09T03:44:59.481Z,12.40
2018-05-09T03:47:27.980Z,12.20
2018-05-09T03:49:56.415Z,12.10
2018-05-09T03:52:24.959Z,12.00
2018-05-09T03:54:54.189Z,11.70
2018-05-09T03:57:22.772Z,11.70
2018-05-09T03:59:51.255Z,11.50
2018-05-09T04:02:44.515Z,11.40
2018-05-09T04:05:30.808Z,11.30
2018-05-09T04:08:16.935Z,11.20
2018-05-09T04:10:45.389Z,11.10
2018-05-09T04:13:13.910Z,11.00
2018-05-09T04:15:42.398Z,10.90
2018-05-09T04:18:10.901Z,10.90
2018-05-09T04:20:40.212Z,10.70
2018-05-09T04:23:09.417Z,10.70
2018-05-09T04:25:37.865Z,10.70
2018-05-09T04:28:06.415Z,10.70
2018-05-09T04:30:35.612Z,10.60
2018-05-09T04:33:04.224Z,10.60
2018-05-09T04:35:32.689Z,10.60
2018-05-09T04:38:01.167Z,10.60
2018-05-09T04:40:29.633Z,10.70
2018-05-09T04:42:58.909Z,10.80
2018-05-09T04:45:27.357Z,10.80
2018-05-09T04:47:55.840Z,10.90
2018-05-09T04:50:24.321Z,11.00
2018-05-09T04:52:52.843Z,11.20
2018-05-09T04:55:21.386Z,11.30
2018-05-09T04:57:49.807Z,11.40
2018-05-09T05:00:18.282Z,11.50
2018-05-09T05:02:46.747Z,11.60
2018-05-09T05:05:15.691Z,11.80
2018-05-09T05:07:44.194Z,11.90
2018-05-09T05:10:12.760Z,12.00
2018-05-09T05:12:41.223Z,12.20
2018-05-09T05:15:09.733Z,12.30
2018-05-09T05:17:38.278Z,12.40
2018-05-09T05:20:06.831Z,12.60
2018-05-09T05:22:36.125Z,12.90
2018-05-09T05:25:05.440Z,13.00
2018-05-09T05:27:34.836Z,13.40
2018-05-09T05:30:03.337Z,13.30
2018-05-09T05:32:32.590Z,14.00
2018-05-09T05:35:01.068Z,14.00
2018-05-09T05:37:29.679Z,14.20
2018-05-09T05:39:58.165Z,14.30
2018-05-09T05:42:26.808Z,14.60
2018-05-09T05:44:55.521Z,14.80
2018-05-09T05:47:24.453Z,14.90
2018-05-09T05:49:53.729Z,15.20
2018-05-09T05:52:22.392Z,15.20
2018-05-09T05:54:50.909Z,15.20
2018-05-09T05:57:19.355Z,15.30
2018-05-09T05:59:47.850Z,15.40
2018-05-09T06:02:16.346Z,15.60
2018-05-09T06:04:44.821Z,15.70
2018-05-09T06:07:13.281Z,15.60
2018-05-09T06:09:42.579Z,15.60
2018-05-09T06:12:11.043Z,15.50
2018-05-09T06:14:39.526Z,15.50
2018-05-09T06:17:08.060Z,15.40
2018-05-09T06:19:36.524Z,15.30
2018-05-09T06:22:05.772Z,15.40
2018-05-09T06:24:34.266Z,15.40
2018-05-09T06:27:02.747Z,15.50
2018-05-09T06:29:31.227Z,15.50
2018-05-09T06:31:59.684Z,15.60
2018-05-09T06:34:28.176Z,15.70
2018-05-09T06:36:57.924Z,15.70
2018-05-09T06:39:26.481Z,15.90
2018-05-09T06:41:54.936Z,16.00
2018-05-09T06:44:23.471Z,16.00
2018-05-09T06:46:51.941Z,16.10
2018-05-09T06:49:21.188Z,16.00
2018-05-09T06:51:49.665Z,16.00
2018-05-09T06:54:18.127Z,16.10
2018-05-09T06:56:46.619Z,16.20
2018-05-09T06:59:15.084Z,16.30
2018-05-09T07:01:43.589Z,16.50
2018-05-09T07:04:12.046Z,16.70
2018-05-09T07:06:40.911Z,16.80
2018-05-09T07:09:09.149Z,16.90
2018-05-09T07:11:37.658Z,17.00
2018-05-09T07:14:06.118Z,16.90
2018-05-09T07:16:34.597Z,16.80
2018-05-09T07:19:03.083Z,16.80
2018-05-09T07:21:32.068Z,16.70
2018-05-09T07:24:00.547Z,16.60
2018-05-09T07:26:29.034Z,16.60
2018-05-09T07:28:57.523Z,16.60
2018-05-09T07:31:26.034Z,16.50
2018-05-09T07:33:54.540Z,16.50
2018-05-09T07:36:23.012Z,16.60
2018-05-09T07:38:51.484Z,16.60
2018-05-09T07:41:19.964Z,16.60
2018-05-09T07:43:48.424Z,16.70
2018-05-09T07:46:16.904Z,16.90
2018-05-09T07:48:46.180Z,16.90
2018-05-09T07:51:14.667Z,16.90
2018-05-09T07:53:43.168Z,17.00
2018-05-09T07:56:12.417Z,17.10
2018-05-09T07:58:40.883Z,17.10
2018-05-09T08:01:09.362Z,17.20
2018-05-09T08:03:37.833Z,17.50
2018-05-09T08:06:07.108Z,17.80
2018-05-09T08:08:35.570Z,17.80
2018-05-09T08:11:04.048Z,17.90
2018-05-09T08:13:32.507Z,17.90
2018-05-09T08:16:00.998Z,18.20
2018-05-09T08:18:29.461Z,18.30
2018-05-09T08:20:58.946Z,18.40
2018-05-09T08:23:28.203Z,18.50
2018-05-09T08:25:56.686Z,18.40
2018-05-09T08:28:25.324Z,18.50
2018-05-09T08:30:53.884Z,18.70
2018-05-09T08:33:22.344Z,18.70
2018-05-09T08:35:51.034Z,19.00
2018-05-09T08:38:19.471Z,18.90
2018-05-09T08:40:47.971Z,19.10
2018-05-09T08:43:17.415Z,19.50
2018-05-09T08:45:46.153Z,19.50
2018-05-09T08:48:14.605Z,19.60
2018-05-09T08:50:43.298Z,19.70
2018-05-09T08:53:12.025Z,19.80
2018-05-09T08:55:40.556Z,19.90
2018-05-09T08:58:09.045Z,20.00
2018-05-09T09:00:37.634Z,19.90
2018-05-09T09:03:06.136Z,19.90
2018-05-09T09:05:34.608Z,19.90
2018-05-09T09:08:03.090Z,20.10
2018-05-09T09:10:31.554Z,20.10
2018-05-09T09:13:00.873Z,20.30
2018-05-09T09:15:29.634Z,20.30
2018-05-09T09:17:58.801Z,20.40
2018-05-09T09:20:27.279Z,20.40
2018-05-09T09:22:55.762Z,20.50
2018-05-09T09:25:24.975Z,20.20
2018-05-09T09:27:53.559Z,20.20
2018-05-09T09:30:22.318Z,20.40
2018-05-09T09:32:50.849Z,20.60
2018-05-09T09:35:19.292Z,20.50
2018-05-09T09:37:48.050Z,20.60
2018-05-09T09:40:16.600Z,20.80
2018-05-09T09:42:45.156Z,20.80
2018-05-09T09:45:14.586Z,20.60
2018-05-09T09:47:43.068Z,20.50
2018-05-09T09:50:11.533Z,20.70
2018-05-09T09:52:40.337Z,20.70
2018-05-09T09:55:08.869Z,20.70
2018-05-09T09:57:37.608Z,20.70
2018-05-09T10:00:06.481Z,20.70
2018-05-09T10:02:35.725Z,20.70
2018-05-09T10:05:04.325Z,20.70
2018-05-09T10:07:33.057Z,20.80
2018-05-09T10:10:02.293Z,21.20
2018-05-09T10:12:30.855Z,21.20
2018-05-09T10:14:59.342Z,21.30
2018-05-09T10:17:28.638Z,21.20
2018-05-09T10:19:57.096Z,21.20
2018-05-09T10:22:25.701Z,21.40
2018-05-09T10:24:54.943Z,21.80
2018-05-09T10:27:23.418Z,21.70
2018-05-09T10:29:51.885Z,21.60
2018-05-09T10:32:21.146Z,21.80
2018-05-09T10:34:49.642Z,21.70
2018-05-09T10:37:18.169Z,21.80
2018-05-09T10:39:47.476Z,21.60
2018-05-09T10:42:15.886Z,21.60
2018-05-09T10:44:44.369Z,21.40
2018-05-09T10:47:13.696Z,20.90
2018-05-09T10:49:42.179Z,20.80
2018-05-09T10:52:10.680Z,20.70
2018-05-09T10:54:39.160Z,20.90
2018-05-09T10:57:07.697Z,20.90
2018-05-09T10:59:36.133Z,21.20
2018-05-09T11:02:04.585Z,21.50
2018-05-09T11:04:33.092Z,21.60
2018-05-09T11:07:01.562Z,21.30
2018-05-09T11:09:30.204Z,21.40
2018-05-09T11:11:59.431Z,21.00
2018-05-09T11:14:27.922Z,21.00
2018-05-09T11:16:56.376Z,20.90
2018-05-09T11:19:25.663Z,20.90
2018-05-09T11:21:54.131Z,20.80
2018-05-09T11:24:23.047Z,20.70
2018-05-09T11:26:51.536Z,20.80
2018-05-09T11:29:20.063Z,20.90
2018-05-09T11:31:48.523Z,20.80
2018-05-09T11:34:19.042Z,20.60
2018-05-09T11:36:48.460Z,20.60
2018-05-09T11:39:17.124Z,20.50
2018-05-09T11:41:45.662Z,20.60
2018-05-09T11:44:14.278Z,20.50
2018-05-09T11:46:42.769Z,20.50
2018-05-09T11:49:11.275Z,20.20
2018-05-09T11:51:39.802Z,20.30
2018-05-09T11:54:09.065Z,20.50
2018-05-09T11:56:37.543Z,20.50
2018-05-09T11:59:06.066Z,20.30
2018-05-09T12:01:34.515Z,20.50
2018-05-09T12:04:03.058Z,20.80
2018-05-09T12:06:31.574Z,20.80
2018-05-09T12:09:00.093Z,20.90
2018-05-09T12:11:32.643Z,20.90
2018-05-09T12:14:01.166Z,21.10
2018-05-09T12:16:29.609Z,21.30
2018-05-09T12:18:58.103Z,21.50
2018-05-09T12:21:26.595Z,21.80
2018-05-09T12:23:55.345Z,21.90
2018-05-09T12:26:23.898Z,22.00
2018-05-09T12:28:52.402Z,22.00
2018-05-09T12:31:21.655Z,22.00
2018-05-09T12:33:50.169Z,22.00
2018-05-09T12:36:18.735Z,22.00
2018-05-09T12:38:48.186Z,22.10
2018-05-09T12:41:17.440Z,22.10
2018-05-09T12:43:46.968Z,22.00
2018-05-09T12:46:16.925Z,22.20
2018-05-09T12:48:46.267Z,22.30
2018-05-09T12:51:14.663Z,22.30
2018-05-09T12:53:43.175Z,22.30
2018-05-09T12:56:11.902Z,22.30
2018-05-09T12:58:40.768Z,22.30
2018-05-09T13:01:10.755Z,22.50
2018-05-09T13:03:39.777Z,22.40
2018-05-09T13:06:08.920Z,22.50
2018-05-09T13:08:37.447Z,22.50
2018-05-09T13:11:05.997Z,22.40
2018-05-09T13:13:34.445Z,22.50
2018-05-09T13:16:03.701Z,22.20
2018-05-09T13:18:32.180Z,22.20
2018-05-09T13:21:00.694Z,22.30
2018-05-09T13:23:29.177Z,21.90
2018-05-09T13:25:57.709Z,21.80
2018-05-09T13:28:27.430Z,21.80
2018-05-09T13:30:55.912Z,21.80
2018-05-09T13:33:24.384Z,21.90
2018-05-09T13:35:53.646Z,22.10
2018-05-09T13:38:22.117Z,22.10
2018-05-09T13:40:50.616Z,22.10
2018-05-09T13:43:19.089Z,22.00
2018-05-09T13:45:47.564Z,21.90
2018-05-09T13:48:16.828Z,21.80
2018-05-09T13:50:46.123Z,21.70
2018-05-09T13:53:14.774Z,21.70
2018-05-09T13:55:43.299Z,21.60
2018-05-09T13:58:11.809Z,21.60
2018-05-09T14:00:41.060Z,21.30
2018-05-09T14:03:09.537Z,21.30
2018-05-09T14:05:38.133Z,21.30
2018-05-09T14:08:06.649Z,21.10
2018-05-09T14:10:35.137Z,20.80
2018-05-09T14:13:03.619Z,21.00
2018-05-09T14:15:32.267Z,21.30
2018-05-09T14:18:01.503Z,21.40
2018-05-09T14:20:30.030Z,21.40
2018-05-09T14:22:58.613Z,21.40
2018-05-09T14:25:27.953Z,21.40
2018-05-09T14:27:56.436Z,21.40
2018-05-09T14:30:24.943Z,21.50
2018-05-09T14:32:53.398Z,21.60
2018-05-09T14:35:21.920Z,21.60
2018-05-09T14:37:50.389Z,21.80
2018-05-09T14:40:18.912Z,22.00
2018-05-09T14:42:48.173Z,22.20
2018-05-09T14:45:16.746Z,22.20
2018-05-09T14:47:45.196Z,22.10
2018-05-09T14:50:13.780Z,22.00
2018-05-09T14:52:43.040Z,21.90
2018-05-09T14:55:12.366Z,21.90
2018-05-09T14:57:40.926Z,21.90
2018-05-09T15:00:09.521Z,21.70
2018-05-09T15:02:38.822Z,21.30
2018-05-09T15:05:07.380Z,21.30
2018-05-09T15:07:35.949Z,21.30
2018-05-09T15:10:05.421Z,21.20
2018-05-09T15:12:33.971Z,21.20
2018-05-09T15:15:02.506Z,21.20
2018-05-09T15:17:32.811Z,21.10
2018-05-09T15:20:01.294Z,21.20
2018-05-09T15:22:29.897Z,21.20
2018-05-09T15:24:58.373Z,21.20
2018-05-09T15:27:27.115Z,21.30
2018-05-09T15:29:56.364Z,21.50
2018-05-09T15:32:24.860Z,21.50
2018-05-09T15:34:53.342Z,21.60
2018-05-09T15:37:21.862Z,21.70
2018-05-09T15:39:51.092Z,21.80
2018-05-09T15:42:19.617Z,21.80
2018-05-09T15:44:48.122Z,21.80
2018-05-09T15:47:16.644Z,21.80
2018-05-09T15:49:45.872Z,21.70
2018-05-09T15:52:14.405Z,21.70
2018-05-09T15:54:43.768Z,21.70
2018-05-09T15:57:12.534Z,21.70
2018-05-09T15:59:41.790Z,21.70
2018-05-09T16:02:10.720Z,21.70
2018-05-09T16:04:39.163Z,21.60
2018-05-09T16:07:07.715Z,21.70
2018-05-09T16:09:36.257Z,21.80
2018-05-09T16:12:04.842Z,21.80
2018-05-09T16:14:34.044Z,21.70
2018-05-09T16:17:02.540Z,21.60
2018-05-09T16:19:31.091Z,21.50
2018-05-09T16:21:59.603Z,21.30
2018-05-09T16:24:28.103Z,21.30
2018-05-09T16:26:56.643Z,21.20
2018-05-09T16:29:25.134Z,21.30
2018-05-09T16:31:53.631Z,21.00
2018-05-09T16:34:22.115Z,21.00
2018-05-09T16:36:50.622Z,21.00
2018-05-09T16:39:19.109Z,21.10
2018-05-09T16:41:47.647Z,21.20
2018-05-09T16:44:16.107Z,21.30
2018-05-09T16:46:45.402Z,21.00
2018-05-09T16:49:13.955Z,21.00
2018-05-09T16:51:42.483Z,21.00
2018-05-09T16:54:10.975Z,21.00
2018-05-09T16:56:40.339Z,20.80
2018-05-09T16:59:09.735Z,20.80
2018-05-09T17:01:38.268Z,20.90
2018-05-09T17:04:07.621Z,20.60
2018-05-09T17:06:36.161Z,20.60
2018-05-09T17:09:04.968Z,20.70
2018-05-09T17:11:33.454Z,20.70
2018-05-09T17:14:02.024Z,20.70
2018-05-09T17:16:31.280Z,20.80
2018-05-09T17:18:59.845Z,20.80
2018-05-09T17:21:45.965Z,20.70
2018-05-09T17:24:14.517Z,20.80
2018-05-09T17:26:43.063Z,20.80
2018-05-09T17:29:11.624Z,20.80
2018-05-09T17:31:40.189Z,20.80
2018-05-09T17:34:08.756Z,20.80
2018-05-09T17:36:37.236Z,20.80
2018-05-09T17:39:06.563Z,20.70
2018-05-09T17:41:36.676Z,20.70
2018-05-09T17:44:05.169Z,20.80
2018-05-09T17:46:33.672Z,20.80
2018-05-09T17:49:02.185Z,20.70
2018-05-09T17:51:31.542Z,20.80
2018-05-09T17:54:00.030Z,20.70
2018-05-09T17:56:30.240Z,20.70
2018-05-09T17:59:00.242Z,20.50
2018-05-09T18:01:29.770Z,20.50
2018-05-09T18:04:03.964Z,20.40
2018-05-09T18:06:32.396Z,20.20
2018-05-09T18:09:00.874Z,20.10
2018-05-09T18:11:29.332Z,19.90
2018-05-09T18:13:58.592Z,19.40
2018-05-09T18:16:27.066Z,19.40
2018-05-09T18:18:55.567Z,19.10
2018-05-09T18:21:24.015Z,18.90
2018-05-09T18:23:52.515Z,18.70
2018-05-09T18:26:21.086Z,18.70
2018-05-09T18:28:49.585Z,18.50
2018-05-09T18:31:18.038Z,18.40
2018-05-09T18:33:47.273Z,18.00
2018-05-09T18:36:15.732Z,18.00
2018-05-09T18:38:45.006Z,17.70
2018-05-09T18:41:13.461Z,17.70
2018-05-09T18:43:41.980Z,17.60
2018-05-09T18:46:10.493Z,17.30
2018-05-09T18:48:38.987Z,17.10
2018-05-09T18:51:07.442Z,17.00
2018-05-09T18:53:36.712Z,16.70
2018-05-09T18:56:05.229Z,16.70
2018-05-09T18:58:33.723Z,16.60
2018-05-09T19:01:02.215Z,16.50
2018-05-09T19:03:31.497Z,16.30
2018-05-09T19:05:59.980Z,16.30
2018-05-09T19:08:28.453Z,16.20
2018-05-09T19:10:56.990Z,16.00
2018-05-09T19:13:26.250Z,15.90
2018-05-09T19:15:54.707Z,15.90
2018-05-09T19:18:23.192Z,15.90
2018-05-09T19:20:51.714Z,15.70
2018-05-09T19:23:20.166Z,15.70
2018-05-09T19:25:48.660Z,15.70
2018-05-09T19:28:17.178Z,15.60
2018-05-09T19:30:45.661Z,15.50
2018-05-09T19:33:14.125Z,15.50
2018-05-09T19:35:42.650Z,15.40
2018-05-09T19:38:11.889Z,15.20
2018-05-09T19:40:40.384Z,15.20
2018-05-09T19:43:08.846Z,15.10
2018-05-09T19:45:37.326Z,15.10
2018-05-09T19:48:05.795Z,15.00
2018-05-09T19:50:35.055Z,14.80
2018-05-09T19:53:03.499Z,14.80
2018-05-09T19:55:31.998Z,14.70
2018-05-09T19:58:00.448Z,14.70
2018-05-09T20:00:29.707Z,14.60
2018-05-09T20:02:58.300Z,14.60
2018-05-09T20:05:27.515Z,14.60
2018-05-09T20:07:55.969Z,14.60
2018-05-09T20:10:24.449Z,14.60
2018-05-09T20:12:52.954Z,14.40
2018-05-09T20:15:21.503Z,14.40
2018-05-09T20:17:50.010Z,14.40
2018-05-09T20:20:18.536Z,14.30
2018-05-09T20:22:47.291Z,14.30
2018-05-09T20:25:15.790Z,14.20
2018-05-09T20:27:44.260Z,14.20
2018-05-09T20:30:18.276Z,14.10
2018-05-09T20:32:46.841Z,14.00
2018-05-09T20:35:15.491Z,14.00
2018-05-09T20:37:44.014Z,14.00
2018-05-09T20:40:12.553Z,13.90
2018-05-09T20:42:41.031Z,13.90
2018-05-09T20:45:09.523Z,13.80
2018-05-09T20:47:38.177Z,13.70
2018-05-09T20:50:06.664Z,13.70
2018-05-09T20:52:35.138Z,13.70
2018-05-09T20:55:21.463Z,13.70
2018-05-09T20:57:49.932Z,13.70
2018-05-09T21:00:18.489Z,13.60
2018-05-09T21:02:47.871Z,13.50
2018-05-09T21:05:16.503Z,13.50
2018-05-09T21:07:57.010Z,13.50
2018-05-09T21:10:25.502Z,13.50
2018-05-09T21:12:54.006Z,13.40
2018-05-09T21:15:23.306Z,13.30
2018-05-09T21:17:51.822Z,13.30
2018-05-09T21:20:20.365Z,13.30
2018-05-09T21:22:49.101Z,13.30
2018-05-09T21:25:18.354Z,13.30
2018-05-09T21:27:47.738Z,13.30
2018-05-09T21:30:16.121Z,13.30
2018-05-09T21:32:44.607Z,13.40
2018-05-09T21:35:13.089Z,13.30
2018-05-09T21:37:42.351Z,13.30
2018-05-09T21:40:11.616Z,13.30
2018-05-09T21:42:40.159Z,13.20
2018-05-09T21:45:08.665Z,13.20
2018-05-09T21:47:37.329Z,13.10
2018-05-09T21:50:05.876Z,13.10
2018-05-09T21:52:34.524Z,13.10
2018-05-09T21:55:04.411Z,13.00
2018-05-09T21:57:34.220Z,12.90
2018-05-09T22:00:02.990Z,12.90
2018-05-09T22:02:34.448Z,12.90
2018-05-09T22:05:03.105Z,12.90
2018-05-09T22:07:31.769Z,12.90
2018-05-09T22:10:01.638Z,12.90
2018-05-09T22:12:30.196Z,12.90
2018-05-09T22:14:58.671Z,12.90
2018-05-09T22:17:27.227Z,12.90
2018-05-09T22:19:56.464Z,12.80
2018-05-09T22:22:26.487Z,12.80
2018-05-09T22:24:54.980Z,12.70
2018-05-09T22:27:23.526Z,12.80
2018-05-09T22:29:52.772Z,13.10
2018-05-09T22:32:21.273Z,13.10
2018-05-09T22:34:49.788Z,13.10
2018-05-09T22:37:19.093Z,12.90
2018-05-09T22:39:48.327Z,12.90
2018-05-09T22:42:16.812Z,12.90
2018-05-09T22:44:45.281Z,12.80
2018-05-09T22:47:13.779Z,12.80
2018-05-09T22:49:42.261Z,12.80
2018-05-09T22:52:10.772Z,12.70
2018-05-09T22:54:39.260Z,12.80
2018-05-09T22:57:07.766Z,12.80
2018-05-09T22:59:36.227Z,12.70
2018-05-09T23:02:04.719Z,12.70
2018-05-09T23:04:33.202Z,12.70
2018-05-09T23:07:01.708Z,12.70
2018-05-09T23:09:30.177Z,12.70
2018-05-09T23:11:58.688Z,12.70
2018-05-09T23:14:27.262Z,12.70
2018-05-09T23:16:55.749Z,12.70
2018-05-09T23:19:24.216Z,12.70
2018-05-09T23:21:52.704Z,12.70
2018-05-09T23:24:21.204Z,12.80
2018-05-09T23:26:49.704Z,12.80
2018-05-09T23:29:19.175Z,12.90
2018-05-09T23:31:47.668Z,12.80
2018-05-09T23:34:16.173Z,12.80
2018-05-09T23:36:44.657Z,12.80
2018-05-09T23:39:13.169Z,12.70
2018-05-09T23:41:41.633Z,12.70
2018-05-09T23:44:10.128Z,12.70
2018-05-09T23:46:38.601Z,12.70
2018-05-09T23:49:07.103Z,12.70
2018-05-09T23:51:35.608Z,12.80
2018-05-09T23:54:04.873Z,12.90
2018-05-09T23:56:33.353Z,12.90
2018-05-09T23:59:01.889Z,12.90
